Time;durP1;ratioP1;P1;durP2;ratioP2;P2;SDS_P1;SDS_P2;PMS_P1;PMS_P2;Temp;Humidity;BMP_temperature;BMP_pressure;BME280_temperature;BME280_humidity;BME280_pressure;Samples;Min_cycle;Max_cycle;Signal;HPM_P1;HPM_P2
2021/11/26 00:01:56;;;;;;;63.90;44.10;;;;;;;;;;5076555;28;20024;-80
2021/11/26 00:04:21;;;;;;;63.17;44.15;;;;;;;;;;5073371;28;20026;-79
2021/11/26 00:06:46;;;;;;;63.65;44.03;;;;;;;;;;5076933;28;20435;-80
2021/11/26 00:09:12;;;;;;;63.20;44.17;;;;;;;;;;5077531;28;20472;-79
2021/11/26 00:11:37;;;;;;;64.68;45.72;;;;;;;;;;5076002;28;20044;-79
2021/11/26 00:16:40;;;;;;;63.17;45.20;;;;;;;;;;5076276;28;20028;-78
2021/11/26 00:19:07;;;;;;;69.82;46.85;;;;;;;;;;5073899;28;20033;-78
2021/11/26 00:21:38;;;;;;;;;;;;;;;;;;5078360;28;20073;-78
2021/11/26 00:24:06;;;;;;;66.20;45.60;;;;;;;;;;5077169;28;19916;-78
2021/11/26 00:26:32;;;;;;;67.80;46.00;;;;;;;;;;5080284;28;20028;-79
2021/11/26 00:28:57;;;;;;;67.03;46.58;;;;;;;;;;5087126;28;20098;-78
2021/11/26 00:31:23;;;;;;;64.05;46.45;;;;;;;;;;5074708;28;20066;-79
2021/11/26 00:33:48;;;;;;;69.53;47.67;;;;;;;;;;5074467;28;20456;-79
2021/11/26 00:36:14;;;;;;;68.88;47.95;;;;;;;;;;5076675;28;20024;-79
2021/11/26 00:38:39;;;;;;;66.25;46.38;;;;;;;;;;5077014;28;20420;-79
2021/11/26 00:41:05;;;;;;;66.45;46.40;;;;;;;;;;5076917;28;20040;-78
2021/11/26 00:43:32;;;;;;;69.30;47.33;;;;;;;;;;5073244;28;20025;-79
2021/11/26 00:45:57;;;;;;;65.05;46.80;;;;;;;;;;5074579;28;20021;-79
2021/11/26 00:48:24;;;;;;;64.85;46.38;;;;;;;;;;5085723;28;20043;-79
2021/11/26 00:50:50;;;;;;;66.45;47.00;;;;;;;;;;5077758;28;20029;-79
2021/11/26 00:53:15;;;;;;;67.85;47.83;;;;;;;;;;5077297;28;20021;-79
2021/11/26 00:55:41;;;;;;;64.97;46.55;;;;;;;;;;5076243;28;20116;-80
2021/11/26 00:58:06;;;;;;;65.05;47.17;;;;;;;;;;5071842;28;20036;-79
2021/11/26 01:00:32;;;;;;;66.32;46.72;;;;;;;;;;5077509;28;20021;-79
2021/11/26 01:02:58;;;;;;;70.80;50.08;;;;;;;;;;5076875;28;20135;-78
2021/11/26 01:05:24;;;;;;;66.65;48.55;;;;;;;;;;5076695;28;20024;-79
2021/11/26 01:07:49;;;;;;;66.28;47.72;;;;;;;;;;5076651;28;20024;-78
2021/11/26 01:10:18;;;;;;;68.97;48.95;;;;;;;;;;5072591;28;20041;-79
2021/11/26 01:12:45;;;;;;;65.07;47.13;;;;;;;;;;5076182;28;20104;-78
2021/11/26 01:15:12;;;;;;;67.00;49.17;;;;;;;;;;5075797;28;20094;-78
2021/11/26 01:17:41;;;;;;;68.95;50.05;;;;;;;;;;5078258;28;20032;-79
2021/11/26 01:20:08;;;;;;;63.47;46.85;;;;;;;;;;5084548;28;20017;-80
2021/11/26 01:22:33;;;;;;;61.88;45.53;;;;;;;;;;5062037;28;20020;-79
2021/11/26 01:24:59;;;;;;;68.82;48.75;;;;;;;;;;5073267;28;20488;-78
2021/11/26 01:27:24;;;;;;;68.82;50.20;;;;;;;;;;5075853;28;20103;-79
2021/11/26 01:29:50;;;;;;;68.45;49.70;;;;;;;;;;5076526;28;20054;-79
2021/11/26 01:32:15;;;;;;;67.10;48.05;;;;;;;;;;5076196;28;20029;-80
2021/11/26 01:34:40;;;;;;;67.93;49.22;;;;;;;;;;5075822;28;20074;-78
2021/11/26 01:37:06;;;;;;;67.07;48.53;;;;;;;;;;5057618;28;20125;-79
2021/11/26 01:39:31;;;;;;;65.72;47.75;;;;;;;;;;5077052;28;20450;-78
2021/11/26 01:41:57;;;;;;;67.97;48.95;;;;;;;;;;5082022;28;20101;-79
2021/11/26 01:44:22;;;;;;;69.75;49.53;;;;;;;;;;5082428;28;20435;-81
2021/11/26 01:46:48;;;;;;;72.60;51.30;;;;;;;;;;5076208;28;20023;-80
2021/11/26 01:49:14;;;;;;;72.68;51.67;;;;;;;;;;5071123;28;20032;-79
2021/11/26 01:51:40;;;;;;;67.82;49.00;;;;;;;;;;5076489;28;20028;-79
2021/11/26 01:54:06;;;;;;;68.10;48.55;;;;;;;;;;5076238;28;20482;-79
2021/11/26 01:56:32;;;;;;;70.80;51.58;;;;;;;;;;5070826;28;20028;-78
2021/11/26 01:59:00;;;;;;;72.43;50.55;;;;;;;;;;5076135;28;20111;-78
2021/11/26 02:01:25;;;;;;;69.10;50.00;;;;;;;;;;5073748;28;20028;-79
2021/11/26 02:03:52;;;;;;;71.05;52.00;;;;;;;;;;5073732;28;20025;-79
2021/11/26 02:06:18;;;;;;;73.03;51.95;;;;;;;;;;5089434;28;20020;-78
2021/11/26 02:08:43;;;;;;;71.28;51.50;;;;;;;;;;5079361;28;20505;-79
2021/11/26 02:11:09;;;;;;;71.68;51.67;;;;;;;;;;5075990;28;20037;-80
2021/11/26 02:13:34;;;;;;;70.10;50.70;;;;;;;;;;5073432;28;20059;-79
2021/11/26 02:16:02;;;;;;;74.22;52.17;;;;;;;;;;5071950;28;20021;-79
2021/11/26 02:18:27;;;;;;;69.53;51.00;;;;;;;;;;5076629;28;20021;-79
2021/11/26 02:20:53;;;;;;;69.22;50.63;;;;;;;;;;5073826;28;20098;-79
2021/11/26 02:23:18;;;;;;;71.90;51.65;;;;;;;;;;5076075;28;20033;-79
2021/11/26 02:25:44;;;;;;;67.68;50.38;;;;;;;;;;5075806;28;20051;-80
2021/11/26 02:28:12;;;;;;;72.35;52.42;;;;;;;;;;5054390;28;20546;-78
2021/11/26 02:30:38;;;;;;;69.13;51.05;;;;;;;;;;5087958;28;20024;-80
2021/11/26 02:33:12;;;;;;;67.22;50.17;;;;;;;;;;5076433;28;20241;-79
2021/11/26 02:35:39;;;;;;;69.32;51.67;;;;;;;;;;5080558;28;20036;-80
2021/11/26 02:38:07;;;;;;;67.00;48.33;;;;;;;;;;5087860;28;20028;-80
2021/11/26 02:40:36;;;;;;;67.28;50.42;;;;;;;;;;5073274;28;20032;-80
2021/11/26 02:43:01;;;;;;;70.68;51.15;;;;;;;;;;5090910;28;20137;-81
2021/11/26 02:45:28;;;;;;;70.18;52.25;;;;;;;;;;5079703;28;20107;-80
2021/11/26 02:47:54;;;;;;;70.75;50.90;;;;;;;;;;5078926;28;20036;-79
2021/11/26 02:50:22;;;;;;;71.57;51.53;;;;;;;;;;5078691;28;20043;-80
2021/11/26 02:52:47;;;;;;;74.68;52.70;;;;;;;;;;5074196;28;20036;-81
2021/11/26 02:55:16;;;;;;;67.60;50.40;;;;;;;;;;5090490;28;20116;-80
2021/11/26 02:57:42;;;;;;;71.53;51.80;;;;;;;;;;5073985;28;20500;-79
2021/11/26 03:00:09;;;;;;;66.55;49.00;;;;;;;;;;5077530;28;20024;-81
2021/11/26 03:02:35;;;;;;;68.75;50.40;;;;;;;;;;5079133;28;20036;-79
2021/11/26 03:05:00;;;;;;;67.93;50.70;;;;;;;;;;5078461;28;20039;-79
2021/11/26 03:07:26;;;;;;;68.88;51.05;;;;;;;;;;5074487;28;20082;-78
2021/11/26 03:09:51;;;;;;;72.65;52.30;;;;;;;;;;5075489;28;20031;-78
2021/11/26 03:12:17;;;;;;;67.25;51.15;;;;;;;;;;5079366;28;20058;-79
2021/11/26 03:14:42;;;;;;;71.75;52.10;;;;;;;;;;5074117;28;20471;-78
2021/11/26 03:17:08;;;;;;;71.00;51.65;;;;;;;;;;5077525;28;20464;-79
2021/11/26 03:19:33;;;;;;;71.32;51.88;;;;;;;;;;5076744;28;20599;-79
2021/11/26 03:21:59;;;;;;;74.80;53.92;;;;;;;;;;5075846;28;20017;-79
2021/11/26 03:24:24;;;;;;;73.72;54.00;;;;;;;;;;5078449;28;20037;-79
2021/11/26 03:26:50;;;;;;;71.63;52.97;;;;;;;;;;5078500;28;20161;-78
2021/11/26 03:29:16;;;;;;;73.78;54.28;;;;;;;;;;5078228;28;20170;-78
2021/11/26 03:31:41;;;;;;;72.40;53.78;;;;;;;;;;5077775;28;20039;-78
2021/11/26 03:34:07;;;;;;;74.60;52.85;;;;;;;;;;5089547;28;20024;-79
2021/11/26 03:36:32;;;;;;;78.47;55.22;;;;;;;;;;5078875;28;20591;-79
2021/11/26 03:38:58;;;;;;;75.43;56.75;;;;;;;;;;5078162;28;20051;-79
2021/11/26 03:41:23;;;;;;;72.05;52.97;;;;;;;;;;5077715;28;20093;-79
2021/11/26 03:43:49;;;;;;;73.10;54.05;;;;;;;;;;5078444;28;20024;-79
2021/11/26 03:46:16;;;;;;;75.03;55.10;;;;;;;;;;5073725;28;20032;-79
2021/11/26 03:48:42;;;;;;;73.20;54.78;;;;;;;;;;5090842;28;20020;-79
2021/11/26 03:51:08;;;;;;;77.10;55.47;;;;;;;;;;5076909;28;20572;-81
2021/11/26 03:53:33;;;;;;;78.40;56.13;;;;;;;;;;5080552;28;20111;-79
2021/11/26 03:55:58;;;;;;;74.28;55.10;;;;;;;;;;5087692;28;20032;-79
2021/11/26 03:58:24;;;;;;;77.32;54.85;;;;;;;;;;5089939;28;20047;-78
2021/11/26 04:00:49;;;;;;;74.90;55.50;;;;;;;;;;5076571;28;20032;-79
2021/11/26 04:03:14;;;;;;;74.97;55.75;;;;;;;;;;5077991;28;20074;-78
2021/11/26 04:05:40;;;;;;;74.60;55.55;;;;;;;;;;5078161;28;20478;-78
2021/11/26 04:08:05;;;;;;;74.95;55.58;;;;;;;;;;5077679;28;20123;-78
2021/11/26 04:10:31;;;;;;;77.40;56.15;;;;;;;;;;5075715;28;20075;-78
2021/11/26 04:12:56;;;;;;;78.93;56.17;;;;;;;;;;5074127;28;20032;-78
2021/11/26 04:15:22;;;;;;;79.90;57.08;;;;;;;;;;5077913;28;20029;-80
2021/11/26 04:17:50;;;;;;;74.28;54.40;;;;;;;;;;5076933;28;20109;-78
2021/11/26 04:20:17;;;;;;;74.50;55.13;;;;;;;;;;5075739;28;20043;-80
2021/11/26 04:22:44;;;;;;;76.47;56.20;;;;;;;;;;5088972;28;20465;-78
2021/11/26 04:25:12;;;;;;;74.47;55.95;;;;;;;;;;5071963;28;20501;-78
2021/11/26 04:27:38;;;;;;;75.70;56.47;;;;;;;;;;5076622;28;20036;-79
2021/11/26 04:30:05;;;;;;;72.63;55.25;;;;;;;;;;5076123;28;20394;-78
2021/11/26 04:32:31;;;;;;;73.43;54.78;;;;;;;;;;5076171;28;20036;-79
2021/11/26 04:34:57;;;;;;;74.15;55.60;;;;;;;;;;5076001;28;20028;-78
2021/11/26 04:37:22;;;;;;;72.00;53.88;;;;;;;;;;5071737;28;20039;-78
2021/11/26 04:39:48;;;;;;;75.22;55.05;;;;;;;;;;5076181;28;20036;-78
2021/11/26 04:42:13;;;;;;;72.25;53.30;;;;;;;;;;5077236;28;20043;-78
2021/11/26 04:44:39;;;;;;;72.28;52.85;;;;;;;;;;5080340;28;20031;-81
2021/11/26 04:47:05;;;;;;;71.95;54.22;;;;;;;;;;5084650;28;20400;-78
2021/11/26 04:49:30;;;;;;;70.30;52.80;;;;;;;;;;5088552;28;20029;-79
2021/11/26 04:51:57;;;;;;;66.40;49.75;;;;;;;;;;5073456;28;20036;-79
2021/11/26 04:54:22;;;;;;;66.50;50.58;;;;;;;;;;5086459;28;20047;-79
2021/11/26 04:56:47;;;;;;;71.82;51.40;;;;;;;;;;5079421;28;20464;-78
2021/11/26 04:59:13;;;;;;;65.82;50.45;;;;;;;;;;5075460;28;20440;-80
2021/11/26 05:01:38;;;;;;;65.60;51.10;;;;;;;;;;5074320;28;20028;-78
2021/11/26 05:04:04;;;;;;;69.22;52.03;;;;;;;;;;5072042;28;20392;-81
2021/11/26 05:06:29;;;;;;;65.55;50.08;;;;;;;;;;5076726;28;20197;-78
2021/11/26 05:08:54;;;;;;;67.20;50.42;;;;;;;;;;5086188;28;20036;-79
2021/11/26 05:11:20;;;;;;;64.82;50.05;;;;;;;;;;5083601;28;20055;-79
2021/11/26 05:13:46;;;;;;;65.40;50.00;;;;;;;;;;5087473;28;20043;-78
2021/11/26 05:16:13;;;;;;;63.35;49.15;;;;;;;;;;5072095;28;20020;-78
2021/11/26 05:18:48;;;;;;;63.10;49.17;;;;;;;;;;5084283;28;20027;-78
2021/11/26 05:21:13;;;;;;;65.25;49.53;;;;;;;;;;5076009;28;20033;-80
2021/11/26 05:23:39;;;;;;;60.00;48.30;;;;;;;;;;5075996;28;20030;-80
2021/11/26 05:26:04;;;;;;;60.15;46.80;;;;;;;;;;5075230;28;20028;-80
2021/11/26 05:28:30;;;;;;;59.50;46.75;;;;;;;;;;5073193;28;20038;-78
2021/11/26 05:30:56;;;;;;;61.08;47.50;;;;;;;;;;5073733;28;20025;-78
2021/11/26 05:33:22;;;;;;;60.90;47.65;;;;;;;;;;5077162;28;20027;-78
2021/11/26 05:35:47;;;;;;;59.65;47.13;;;;;;;;;;5074272;28;20438;-79
2021/11/26 05:38:13;;;;;;;64.18;48.47;;;;;;;;;;5076063;28;20020;-78
2021/11/26 05:40:38;;;;;;;60.88;47.42;;;;;;;;;;5075518;28;20024;-79
2021/11/26 05:43:04;;;;;;;55.67;45.20;;;;;;;;;;5072914;28;20393;-78
2021/11/26 05:45:29;;;;;;;60.17;47.55;;;;;;;;;;5075822;28;20028;-79
2021/11/26 05:47:55;;;;;;;60.90;47.10;;;;;;;;;;5076428;28;20037;-78
2021/11/26 05:50:23;;;;;;;56.47;43.80;;;;;;;;;;5075940;28;20029;-78
2021/11/26 05:52:49;;;;;;;52.30;41.65;;;;;;;;;;5071437;28;20032;-78
2021/11/26 05:55:17;;;;;;;52.25;42.00;;;;;;;;;;5071961;28;20055;-78
2021/11/26 05:57:43;;;;;;;54.80;43.13;;;;;;;;;;5075981;28;20056;-80
2021/11/26 06:00:12;;;;;;;57.38;44.72;;;;;;;;;;5075974;28;20133;-78
2021/11/26 06:02:38;;;;;;;57.97;44.30;;;;;;;;;;5075933;28;20197;-78
2021/11/26 06:05:04;;;;;;;54.33;43.00;;;;;;;;;;5076181;28;20495;-79
2021/11/26 06:07:29;;;;;;;54.22;42.92;;;;;;;;;;5071256;28;20040;-78
2021/11/26 06:09:55;;;;;;;54.97;43.75;;;;;;;;;;5084123;28;20377;-80
2021/11/26 06:12:20;;;;;;;54.88;42.90;;;;;;;;;;5081000;28;20029;-79
2021/11/26 06:14:45;;;;;;;59.13;44.42;;;;;;;;;;5078306;28;20082;-79
2021/11/26 06:17:11;;;;;;;55.42;43.53;;;;;;;;;;5082106;28;20120;-79
2021/11/26 06:19:39;;;;;;;52.78;42.28;;;;;;;;;;5078240;28;20024;-80
2021/11/26 06:22:04;;;;;;;52.15;41.10;;;;;;;;;;5075220;28;20028;-79
2021/11/26 06:24:30;;;;;;;53.92;42.05;;;;;;;;;;5091121;28;20077;-82
2021/11/26 06:26:55;;;;;;;55.30;41.72;;;;;;;;;;5090866;28;20024;-82
2021/11/26 06:29:21;;;;;;;52.35;41.00;;;;;;;;;;5082283;28;20020;-80
2021/11/26 06:31:47;;;;;;;57.20;42.92;;;;;;;;;;5076214;28;20039;-82
2021/11/26 06:34:12;;;;;;;57.00;43.55;;;;;;;;;;5076185;28;20509;-81
2021/11/26 06:36:37;;;;;;;53.58;41.65;;;;;;;;;;5079427;28;20114;-80
2021/11/26 06:39:04;;;;;;;53.00;43.28;;;;;;;;;;5078283;28;20473;-80
2021/11/26 06:41:30;;;;;;;57.35;43.40;;;;;;;;;;5078390;28;20028;-79
2021/11/26 06:43:55;;;;;;;54.00;42.42;;;;;;;;;;5081616;28;20553;-81
2021/11/26 06:46:21;;;;;;;54.05;42.20;;;;;;;;;;5080514;28;20020;-80
2021/11/26 06:48:47;;;;;;;55.55;43.60;;;;;;;;;;5079555;28;20103;-81
2021/11/26 06:51:14;;;;;;;54.95;42.13;;;;;;;;;;5062309;28;20072;-81
2021/11/26 06:53:47;;;;;;;57.25;44.42;;;;;;;;;;5078386;28;20078;-81
2021/11/26 06:56:13;;;;;;;54.15;42.10;;;;;;;;;;5079778;28;20039;-81
2021/11/26 06:58:42;;;;;;;56.55;44.03;;;;;;;;;;5077341;28;20036;-82
2021/11/26 07:01:07;;;;;;;57.38;45.03;;;;;;;;;;5074781;28;20650;-81
2021/11/26 07:03:34;;;;;;;57.25;44.67;;;;;;;;;;5088792;28;20050;-82
2021/11/26 07:05:59;;;;;;;57.40;44.63;;;;;;;;;;5079754;28;20032;-81
2021/11/26 07:08:26;;;;;;;58.38;45.03;;;;;;;;;;5086053;28;20524;-81
2021/11/26 07:10:53;;;;;;;58.65;45.78;;;;;;;;;;5077643;28;20063;-82
2021/11/26 07:13:20;;;;;;;61.15;45.65;;;;;;;;;;5077526;28;20021;-82
2021/11/26 07:15:47;;;;;;;57.55;44.63;;;;;;;;;;5091339;28;20144;-82
2021/11/26 07:18:16;;;;;;;56.92;44.00;;;;;;;;;;5088290;28;20484;-82
2021/11/26 07:20:42;;;;;;;58.97;45.72;;;;;;;;;;5088408;28;20047;-81
2021/11/26 07:23:09;;;;;;;57.97;45.22;;;;;;;;;;5087114;28;20476;-81
2021/11/26 07:26:00;;;;;;;59.60;45.42;;;;;;;;;;5092715;28;20063;-86
2021/11/26 07:31:20;;;;;;;57.40;44.92;;;;;;;;;;5387680;22;20045;-85
2021/11/26 07:33:46;;;;;;;60.47;45.72;;;;;;;;;;5053875;28;20565;-87
2021/11/26 07:36:12;;;;;;;57.10;44.38;;;;;;;;;;5051632;28;20029;-88
2021/11/26 07:38:37;;;;;;;58.33;44.80;;;;;;;;;;5051438;28;20090;-85
2021/11/26 07:41:03;;;;;;;73.65;54.70;;;;;;;;;;5052669;28;20116;-85
2021/11/26 07:43:28;;;;;;;56.65;43.92;;;;;;;;;;5054787;28;20509;-90
2021/11/26 07:45:55;;;;;;;57.33;44.92;;;;;;;;;;5053003;28;20479;-83
2021/11/26 07:48:21;;;;;;;59.67;45.97;;;;;;;;;;5052601;28;20025;-90
2021/11/26 07:50:48;;;;;;;60.42;47.30;;;;;;;;;;5053773;28;20055;-85
2021/11/26 07:53:15;;;;;;;82.63;60.88;;;;;;;;;;5053829;28;20051;-88
2021/11/26 07:55:40;;;;;;;56.70;44.75;;;;;;;;;;5053533;28;20037;-88
2021/11/26 07:58:07;;;;;;;59.22;45.20;;;;;;;;;;5054384;28;20336;-88
2021/11/26 08:00:33;;;;;;;61.75;49.13;;;;;;;;;;5053747;28;20111;-86
2021/11/26 08:03:01;;;;;;;79.38;61.63;;;;;;;;;;5054342;28;20036;-85
2021/11/26 08:05:27;;;;;;;65.90;51.88;;;;;;;;;;5053495;28;20097;-83
2021/11/26 08:07:53;;;;;;;68.20;54.88;;;;;;;;;;5053187;28;20503;-82
2021/11/26 08:10:18;;;;;;;57.20;45.67;;;;;;;;;;5053423;28;20029;-83
2021/11/26 08:12:44;;;;;;;67.20;54.75;;;;;;;;;;5053548;28;20409;-83
2021/11/26 08:15:12;;;;;;;73.60;59.58;;;;;;;;;;5053822;28;20029;-83
2021/11/26 08:17:37;;;;;;;55.72;44.13;;;;;;;;;;5053170;28;20163;-84
2021/11/26 08:20:05;;;;;;;54.90;44.00;;;;;;;;;;5055130;28;20049;-88
2021/11/26 08:22:33;;;;;;;56.38;45.30;;;;;;;;;;5055066;28;20041;-85
2021/11/26 08:25:00;;;;;;;56.30;42.75;;;;;;;;;;5057652;28;20025;-88
2021/11/26 08:27:26;;;;;;;56.63;44.92;;;;;;;;;;5055857;28;20489;-85
2021/11/26 08:29:52;;;;;;;59.00;45.28;;;;;;;;;;5055973;28;20082;-86
2021/11/26 08:32:20;;;;;;;57.80;44.28;;;;;;;;;;5013323;28;20050;-89
2021/11/26 08:34:46;;;;;;;56.10;45.03;;;;;;;;;;5015924;28;20053;-88
2021/11/26 08:37:12;;;;;;;57.25;44.08;;;;;;;;;;5014883;28;20038;-86
2021/11/26 08:39:38;;;;;;;54.60;43.47;;;;;;;;;;5014006;28;20509;-91
2021/11/26 08:42:05;;;;;;;56.67;45.30;;;;;;;;;;5010763;28;20049;-89
2021/11/26 08:44:32;;;;;;;60.58;47.08;;;;;;;;;;5014766;28;20036;-91
2021/11/26 08:46:59;;;;;;;55.60;44.78;;;;;;;;;;5013329;28;20097;-86
2021/11/26 08:49:26;;;;;;;56.33;45.10;;;;;;;;;;5021615;28;20029;-91
2021/11/26 08:51:54;;;;;;;56.97;45.65;;;;;;;;;;5015190;28;20029;-87
2021/11/26 08:54:25;;;;;;;54.38;42.80;;;;;;;;;;5015519;28;20037;-87
2021/11/26 08:56:55;;;;;;;53.50;42.50;;;;;;;;;;5015049;28;20033;-89
2021/11/26 08:59:23;;;;;;;54.63;43.20;;;;;;;;;;5013662;28;20026;-85
2021/11/26 09:01:50;;;;;;;53.20;43.08;;;;;;;;;;5014351;28;20038;-87
2021/11/26 09:04:20;;;;;;;54.10;42.70;;;;;;;;;;5016351;28;20045;-88
2021/11/26 09:06:46;;;;;;;54.33;41.92;;;;;;;;;;5014267;28;20096;-88
2021/11/26 09:09:13;;;;;;;56.72;42.28;;;;;;;;;;5017915;28;20109;-87
2021/11/26 09:11:39;;;;;;;54.47;43.58;;;;;;;;;;5013927;28;20037;-91
2021/11/26 09:14:07;;;;;;;55.53;43.58;;;;;;;;;;5016107;28;20017;-85
2021/11/26 09:16:34;;;;;;;57.55;44.88;;;;;;;;;;5022970;28;20038;-87
2021/11/26 09:19:00;;;;;;;55.35;43.45;;;;;;;;;;5022190;28;20028;-86
2021/11/26 09:21:26;;;;;;;57.35;44.65;;;;;;;;;;5024542;28;20545;-87
2021/11/26 09:23:53;;;;;;;51.97;43.45;;;;;;;;;;5016039;28;20064;-84
2021/11/26 09:26:22;;;;;;;55.78;44.60;;;;;;;;;;5018129;28;20104;-84
2021/11/26 09:28:50;;;;;;;56.97;45.35;;;;;;;;;;5021263;28;20042;-85
2021/11/26 09:31:18;;;;;;;59.17;45.90;;;;;;;;;;5038493;28;20041;-88
2021/11/26 09:33:47;;;;;;;59.90;47.22;;;;;;;;;;5063438;28;20034;-85
2021/11/26 09:36:15;;;;;;;57.58;44.88;;;;;;;;;;5056276;28;20193;-89
2021/11/26 09:38:45;;;;;;;56.70;44.60;;;;;;;;;;5062220;28;20271;-87
2021/11/26 09:41:16;;;;;;;57.78;45.65;;;;;;;;;;5032871;28;20136;-87
2021/11/26 09:43:46;;;;;;;58.75;43.40;;;;;;;;;;5049763;28;20041;-87
2021/11/26 09:46:17;;;;;;;58.30;45.00;;;;;;;;;;5058163;28;20045;-88
2021/11/26 09:48:42;;;;;;;55.35;42.95;;;;;;;;;;5070981;28;20090;-88
2021/11/26 09:51:11;;;;;;;56.58;43.88;;;;;;;;;;5058493;28;20043;-87
2021/11/26 09:53:40;;;;;;;55.65;44.10;;;;;;;;;;5072048;28;20037;-85
2021/11/26 09:56:11;;;;;;;55.95;42.50;;;;;;;;;;5056653;28;20091;-86
2021/11/26 09:58:37;;;;;;;54.15;41.15;;;;;;;;;;5048645;28;20107;-87
2021/11/26 10:01:05;;;;;;;55.00;42.47;;;;;;;;;;5054816;28;20626;-86
2021/11/26 10:03:47;;;;;;;48.72;39.88;;;;;;;;;;5069638;28;20563;-86
2021/11/26 10:06:23;;;;;;;53.50;43.33;;;;;;;;;;5063316;28;20049;-88
2021/11/26 10:09:02;;;;;;;54.30;43.05;;;;;;;;;;5068787;28;20029;-87
2021/11/26 10:11:30;;;;;;;53.78;42.58;;;;;;;;;;5061158;28;20040;-85
2021/11/26 10:13:58;;;;;;;48.50;38.50;;;;;;;;;;5048126;28;20034;-84
2021/11/26 10:16:25;;;;;;;52.03;42.03;;;;;;;;;;5072465;28;20037;-84
2021/11/26 10:18:57;;;;;;;49.75;38.92;;;;;;;;;;5071879;28;20056;-84
2021/11/26 10:21:26;;;;;;;52.73;40.53;;;;;;;;;;5073885;28;20048;-85
2021/11/26 10:23:54;;;;;;;48.50;39.13;;;;;;;;;;5075557;28;20260;-85
2021/11/26 10:26:29;;;;;;;48.97;39.22;;;;;;;;;;5068412;28;20057;-83
2021/11/26 10:29:06;;;;;;;46.47;37.85;;;;;;;;;;5068385;28;20025;-84
2021/11/26 10:31:39;;;;;;;45.35;36.13;;;;;;;;;;5070467;28;20076;-83
2021/11/26 10:34:11;;;;;;;45.22;35.55;;;;;;;;;;5053151;28;20043;-83
2021/11/26 10:36:45;;;;;;;44.50;37.28;;;;;;;;;;5065218;28;20049;-83
2021/11/26 10:39:19;;;;;;;44.08;36.60;;;;;;;;;;5063908;28;20036;-83
2021/11/26 10:44:48;;;;;;;46.22;37.00;;;;;;;;;;5004224;28;20239;-82
2021/11/26 10:47:33;;;;;;;54.55;45.83;;;;;;;;;;5014827;28;20140;-84
2021/11/26 10:50:32;;;;;;;46.45;37.05;;;;;;;;;;5025142;28;20097;-83
2021/11/26 10:58:38;;;;;;;50.45;40.70;;;;;;;;;;5010271;28;20044;-82
2021/11/26 11:01:08;;;;;;;45.30;36.85;;;;;;;;;;5026072;28;20041;-83
2021/11/26 11:03:37;;;;;;;46.78;38.15;;;;;;;;;;5005622;28;20125;-82
2021/11/26 11:06:16;;;;;;;43.15;34.15;;;;;;;;;;5035580;28;20029;-82
2021/11/26 11:08:43;;;;;;;46.50;37.72;;;;;;;;;;4974057;28;20042;-82
2021/11/26 11:11:18;;;;;;;45.33;36.28;;;;;;;;;;5022954;28;20113;-83
2021/11/26 11:14:15;;;;;;;46.70;36.78;;;;;;;;;;5025360;28;20061;-82
2021/11/26 11:17:01;;;;;;;42.40;33.25;;;;;;;;;;5007774;28;20121;-83
2021/11/26 11:19:39;;;;;;;43.80;35.10;;;;;;;;;;5028972;28;20085;-82
2021/11/26 11:22:08;;;;;;;44.00;36.00;;;;;;;;;;5047535;28;20045;-82
2021/11/26 11:24:48;;;;;;;38.90;31.88;;;;;;;;;;5067787;28;20017;-82
2021/11/26 11:27:38;;;;;;;42.13;33.03;;;;;;;;;;5068247;28;20049;-82
2021/11/26 11:30:45;;;;;;;42.60;34.08;;;;;;;;;;5069413;28;20081;-82
2021/11/26 11:33:26;;;;;;;39.35;33.25;;;;;;;;;;5068487;28;20025;-82
2021/11/26 11:36:36;;;;;;;41.20;34.13;;;;;;;;;;5068429;28;20033;-82
2021/11/26 11:39:35;;;;;;;43.17;34.42;;;;;;;;;;4970212;28;20050;-82
2021/11/26 11:43:14;;;;;;;42.20;33.85;;;;;;;;;;4967565;28;20046;-82
2021/11/26 11:46:24;;;;;;;42.83;32.42;;;;;;;;;;4986771;28;20037;-82
2021/11/26 11:48:59;;;;;;;43.47;34.13;;;;;;;;;;5010631;28;20133;-82
2021/11/26 11:51:56;;;;;;;40.47;32.92;;;;;;;;;;4995535;28;20054;-82
2021/11/26 11:54:44;;;;;;;40.65;32.78;;;;;;;;;;4950857;29;20066;-82
2021/11/26 11:57:40;;;;;;;37.42;30.40;;;;;;;;;;4926971;29;20045;-82
2021/11/26 12:00:38;;;;;;;38.38;29.98;;;;;;;;;;4917804;29;20052;-82
2021/11/26 12:03:50;;;;;;;34.90;28.33;;;;;;;;;;4929559;29;20051;-82
2021/11/26 12:06:38;;;;;;;;;;;;;;;;;;4915730;29;20048;-82
2021/11/26 12:09:26;;;;;;;34.55;28.38;;;;;;;;;;4895680;29;19924;-83
2021/11/26 12:12:23;;;;;;;29.88;24.83;;;;;;;;;;4873929;29;20037;-82
2021/11/26 12:15:19;;;;;;;32.08;25.90;;;;;;;;;;4879989;29;20056;-82
2021/11/26 12:18:09;;;;;;;34.85;27.30;;;;;;;;;;4876203;29;20065;-82
2021/11/26 12:21:04;;;;;;;29.17;23.80;;;;;;;;;;4861194;29;20045;-82
2021/11/26 12:24:00;;;;;;;29.67;23.88;;;;;;;;;;4868197;29;20460;-82
2021/11/26 12:27:20;;;;;;;29.58;23.05;;;;;;;;;;4852240;29;20098;-83
2021/11/26 12:30:51;;;;;;;29.33;23.60;;;;;;;;;;4859584;29;20097;-82
2021/11/26 12:33:40;;;;;;;26.23;21.92;;;;;;;;;;4842638;29;20058;-83
2021/11/26 12:36:18;;;;;;;28.60;23.13;;;;;;;;;;4840502;29;20141;-82
2021/11/26 12:39:14;;;;;;;29.38;23.10;;;;;;;;;;4798970;29;20118;-82
2021/11/26 12:42:29;;;;;;;29.83;24.05;;;;;;;;;;4859980;29;20038;-83
2021/11/26 12:45:23;;;;;;;31.60;24.98;;;;;;;;;;4867380;29;20105;-82
2021/11/26 12:53:07;;;;;;;32.83;26.52;;;;;;;;;;5078731;28;20338;-80
2021/11/26 12:55:36;;;;;;;36.40;28.55;;;;;;;;;;5076710;28;20024;-83
2021/11/26 12:58:03;;;;;;;34.40;28.27;;;;;;;;;;5082711;28;20028;-81
2021/11/26 13:00:30;;;;;;;37.15;28.65;;;;;;;;;;5084407;28;20027;-82
2021/11/26 13:03:33;;;;;;;37.67;28.92;;;;;;;;;;5067185;28;20032;-80
2021/11/26 13:06:01;;;;;;;46.15;34.75;;;;;;;;;;5081123;28;20024;-81
2021/11/26 13:08:30;;;;;;;36.75;28.90;;;;;;;;;;5087563;28;20038;-82
2021/11/26 13:10:56;;;;;;;34.05;27.67;;;;;;;;;;5066730;28;20031;-81
2021/11/26 13:13:24;;;;;;;34.05;28.08;;;;;;;;;;5076412;28;20049;-81
2021/11/26 13:15:50;;;;;;;36.30;27.75;;;;;;;;;;5089867;28;20040;-81
2021/11/26 13:18:19;;;;;;;30.65;25.65;;;;;;;;;;5076160;28;20017;-82
2021/11/26 13:20:54;;;;;;;33.58;26.98;;;;;;;;;;5078621;28;20100;-81
2021/11/26 13:23:27;;;;;;;36.30;27.63;;;;;;;;;;5059294;28;20021;-81
2021/11/26 13:25:56;;;;;;;32.25;26.77;;;;;;;;;;5061678;28;20124;-81
2021/11/26 13:28:31;;;;;;;34.28;27.48;;;;;;;;;;5067290;28;20170;-81
2021/11/26 13:31:17;;;;;;;35.20;27.35;;;;;;;;;;5067752;28;20401;-81
2021/11/26 13:33:47;;;;;;;36.65;27.83;;;;;;;;;;5064497;28;20029;-80
2021/11/26 13:36:21;;;;;;;32.88;26.50;;;;;;;;;;5092639;28;20495;-81
2021/11/26 13:38:54;;;;;;;33.97;26.10;;;;;;;;;;5072023;28;20052;-81
2021/11/26 13:41:28;;;;;;;31.25;25.25;;;;;;;;;;5078569;28;20029;-81
2021/11/26 13:43:58;;;;;;;28.98;24.27;;;;;;;;;;5084736;28;20444;-81
2021/11/26 13:46:34;;;;;;;30.10;24.08;;;;;;;;;;5085284;28;20024;-80
2021/11/26 13:49:20;;;;;;;31.00;26.02;;;;;;;;;;5068224;28;20516;-82
2021/11/26 13:51:59;;;;;;;33.47;26.30;;;;;;;;;;5089236;28;20032;-82
2021/11/26 13:54:33;;;;;;;31.52;25.55;;;;;;;;;;5077590;28;20025;-81
2021/11/26 13:56:59;;;;;;;31.33;25.98;;;;;;;;;;5087242;28;20077;-82
2021/11/26 13:59:30;;;;;;;34.05;26.70;;;;;;;;;;5070733;28;20111;-82
2021/11/26 14:02:15;;;;;;;30.73;25.98;;;;;;;;;;5060145;28;20028;-81
2021/11/26 14:04:44;;;;;;;33.15;27.80;;;;;;;;;;5071154;28;20029;-81
2021/11/26 14:07:16;;;;;;;31.30;25.80;;;;;;;;;;5073211;28;20068;-82
2021/11/26 14:09:44;;;;;;;32.40;26.15;;;;;;;;;;5071044;28;20040;-81
2021/11/26 14:12:22;;;;;;;34.72;26.60;;;;;;;;;;5077564;28;20056;-82
2021/11/26 14:14:50;;;;;;;30.42;25.65;;;;;;;;;;5059593;28;20032;-82
2021/11/26 14:17:28;;;;;;;32.03;26.45;;;;;;;;;;5082376;28;20542;-82
2021/11/26 14:20:01;;;;;;;31.58;25.58;;;;;;;;;;5065171;28;20029;-81
2021/11/26 14:22:30;;;;;;;30.73;25.77;;;;;;;;;;5075583;28;20087;-82
2021/11/26 14:25:06;;;;;;;28.33;24.55;;;;;;;;;;5068997;28;20048;-80
2021/11/26 14:27:47;;;;;;;30.85;25.88;;;;;;;;;;5072649;28;20029;-82
2021/11/26 14:30:17;;;;;;;29.63;24.33;;;;;;;;;;5051843;28;20493;-80
2021/11/26 14:32:55;;;;;;;34.15;26.30;;;;;;;;;;5088074;28;20127;-82
2021/11/26 14:35:24;;;;;;;31.42;25.50;;;;;;;;;;5070488;28;20046;-79
2021/11/26 14:37:50;;;;;;;34.25;26.98;;;;;;;;;;5070139;28;20086;-81
2021/11/26 14:40:20;;;;;;;32.13;26.38;;;;;;;;;;5073126;28;20028;-81
2021/11/26 14:42:46;;;;;;;32.38;26.42;;;;;;;;;;5072676;28;20446;-81
2021/11/26 14:45:22;;;;;;;30.92;24.98;;;;;;;;;;5076359;28;20040;-80
2021/11/26 14:47:48;;;;;;;28.35;24.33;;;;;;;;;;5078554;28;20021;-83
2021/11/26 14:50:23;;;;;;;34.28;26.80;;;;;;;;;;5077009;28;20082;-80
2021/11/26 14:52:48;;;;;;;29.92;24.80;;;;;;;;;;5071999;28;20056;-83
2021/11/26 14:55:14;;;;;;;28.10;23.98;;;;;;;;;;5062296;28;20021;-82
2021/11/26 14:57:40;;;;;;;30.80;24.23;;;;;;;;;;5079519;28;20105;-81